Používaním stránok prevádzkovaných PROFIPILOT, s.r.o. súhlasíte s používaním cookies, ktoré nám pomáhajú zabezpečiť lepšie služby.OK

Briefing

MAPA | METAR | TAF | METEO SITUÁCIA
MAPA | METAR | TAF | METEO SITUÁCIA

Predpoveď na dnes

Slnečno. Najvyššia denná teplota 20 až 25, na Orave a pod Tatrami okolo 18 st. Teplota na horách vo výške 1500 m okolo 14 st. Slabý premenlivý, postupne miestami južný až juhozápadný vietor 2 až 7 m/s (5 až 25 km/h). Predpokladané množstvo zrážok: bez zrážok

SHMÚ, OMPaV, NH 15.9.2019 11:45 LSEČ

MAPA | METAR | TAF | METEO SITUÁCIA

TAF - Letisková predpoveď

15.09.2019 - 11:00 UTC (Včera)

TAF LZIB 151100Z 1512/1612 15005KT CAVOK
     BECMG 1519/1521 VRB02KT
     BECMG 1522/1600 2500 BR FEW003 SCT014
     TEMPO 1600/1607 0300 FG BKN002
     BECMG 1607/1609 30005KT 9999 FEW040=
 TAF LZKZ 151100Z 1512/1612 22010KT CAVOK
     TEMPO 1522/1607 VRB02KT=
 TAF LZTT 151100Z 1512/1612 26004KT CAVOK
     TEMPO 1522/1609 VRB02KT=
 

15.09.2019 - 11:00 UTC (Včera)

TAF LZSL 151100Z 1512/1521 20005KT CAVOK
     BECMG 1519/1521 VRB02KT=
 TAF LZPP 151100Z 1512/1521 18005KT CAVOK
     BECMG 1519/1521 VRB02KT=
 TAF LZZI 151100Z 1512/1521 23010KT CAVOK
     BECMG 1518/1520 VRB02KT=
 
MAPA | METAR | TAF | METEO SITUÁCIA

METAR - Letisková meteo správa

Letisková meteorologická správa METAR

Meteorologické informácie z ďalších profesionálnych meteorologických staníc SHMÚ zobrazené v tvare zodpovedajúcom pravidlám kódovania správ METAR sú uvedené v položke „METSYN Informácie o správe METAR

15.09.2019 - 22:00 UTC

METAR LZIB 152200Z 35002KT CAVOK 14/12 Q1020=
 METAR LZKZ 152200Z 35004KT 9999 FEW005 11/08 Q1021=
 METAR LZPP 152200Z AUTO 36003KT 9999 NCD 12/10 Q1021=
 METAR LZSL 152200Z 00000KT CAVOK 10/09 Q1021=
 METAR LZTT 152200Z 25015KT CAVOK 12/07 Q1021=
 METAR LZZI 152200Z VRB01KT CAVOK 10/09 Q1022=
 

15.09.2019 - 21:30 UTC

METAR LZIB 152130Z 02003KT CAVOK 14/12 Q1020=
 METAR LZKZ 152130Z VRB01KT CAVOK 11/06 Q1020=
 METAR LZPP 152130Z AUTO 36007KT 9999 NCD 12/11 Q1021=
 METAR LZSL 152130Z 00000KT CAVOK 10/08 Q1021=
 METAR LZTT 152130Z 25012KT CAVOK 12/07 Q1021=
 METAR LZZI 152130Z VRB02KT CAVOK 10/09 Q1022=
 

15.09.2019 - 21:00 UTC

METAR LZMC 152100Z 00000KT CAVOK 14/12 Q1021=
 METAR LZPW 152100Z AUTO 20005KT 9999 ////// 10/06
 Q1020=
 
načítavam...